Time;durP1;ratioP1;P1;durP2;ratioP2;P2;SDS_P1;SDS_P2;PMS_P1;PMS_P2;Temp;Humidity;BMP_temperature;BMP_pressure;BME280_temperature;BME280_humidity;BME280_pressure;Samples;Min_cycle;Max_cycle;Signal;HPM_P1;HPM_P2
2022/11/15 00:02:18;;;;;;;;;;;11.00;99.90;;;;;;5073221;28;19908;-75
2022/11/15 00:04:44;;;;;;;;;;;11.10;99.90;;;;;;5073076;28;19912;-75
2022/11/15 00:07:09;;;;;;;;;;;11.10;99.90;;;;;;5073415;28;19978;-75
2022/11/15 00:09:35;;;;;;;;;;;11.10;99.90;;;;;;5073113;28;19915;-75
2022/11/15 00:12:00;;;;;;;;;;;11.10;99.90;;;;;;5073076;28;19916;-75
2022/11/15 00:14:26;;;;;;;;;;;11.20;99.90;;;;;;5073318;28;19958;-76
2022/11/15 00:16:51;;;;;;;;;;;11.20;99.90;;;;;;5073035;28;19934;-75
2022/11/15 00:19:17;;;;;;;;;;;11.20;99.90;;;;;;5073013;28;19916;-76
2022/11/15 00:21:42;;;;;;;;;;;11.20;99.90;;;;;;5073268;28;20473;-75
2022/11/15 00:24:08;;;;;;;;;;;11.20;99.90;;;;;;5072923;28;20282;-76
2022/11/15 00:26:33;;;;;;;;;;;11.30;99.90;;;;;;5074102;28;19909;-75
2022/11/15 00:28:59;;;;;;;;;;;11.30;99.90;;;;;;5058622;28;19916;-75
2022/11/15 00:31:24;;;;;;;;;;;11.30;99.90;;;;;;5076550;28;19915;-74
2022/11/15 00:33:50;;;;;;;;;;;11.30;99.90;;;;;;5076224;28;19912;-75
2022/11/15 00:36:15;;;;;;;;;;;11.30;99.90;;;;;;5076499;28;19913;-75
2022/11/15 00:38:41;;;;;;;;;;;11.30;99.90;;;;;;5076655;28;20393;-75
2022/11/15 00:41:07;;;;;;;;;;;11.30;99.90;;;;;;5058425;28;19916;-75
2022/11/15 00:43:33;;;;;;;;;;;11.40;99.90;;;;;;5076477;28;19954;-75
2022/11/15 00:45:59;;;;;;;;;;;11.40;99.90;;;;;;5076262;28;19961;-76
2022/11/15 00:48:24;;;;;;;;;;;11.40;99.90;;;;;;5076755;28;19913;-75
2022/11/15 00:50:50;;;;;;;;;;;11.40;99.90;;;;;;5076077;28;19909;-74
2022/11/15 00:53:16;;;;;;;;;;;11.50;99.90;;;;;;5076508;28;19909;-75
2022/11/15 00:55:41;;;;;;;;;;;11.50;99.90;;;;;;5076090;28;19916;-75
2022/11/15 00:58:07;;;;;;;;;;;11.50;99.90;;;;;;5076365;28;19908;-75
2022/11/15 01:00:32;;;;;;;;;;;11.50;99.90;;;;;;5076032;28;19909;-75
2022/11/15 01:02:59;;;;;;;;;;;11.50;99.90;;;;;;5075975;28;20354;-75
2022/11/15 01:05:25;;;;;;;;;;;11.60;99.90;;;;;;5076145;28;19938;-74
2022/11/15 01:07:54;;;;;;;;;;;11.50;99.90;;;;;;5075926;28;19908;-75
2022/11/15 01:10:20;;;;;;;;;;;11.50;99.90;;;;;;5076436;28;19912;-74
2022/11/15 01:12:45;;;;;;;;;;;11.50;99.90;;;;;;5075857;28;19915;-75
2022/11/15 01:15:11;;;;;;;;;;;11.60;99.90;;;;;;5076061;28;19909;-76
2022/11/15 01:17:36;;;;;;;;;;;11.60;99.90;;;;;;5075733;28;20282;-75
2022/11/15 01:20:02;;;;;;;;;;;11.60;99.90;;;;;;5075688;28;19908;-75
2022/11/15 01:22:28;;;;;;;;;;;11.60;99.90;;;;;;5075700;28;19909;-75
2022/11/15 01:24:53;;;;;;;;;;;11.60;99.90;;;;;;5076093;28;19912;-75
2022/11/15 01:27:19;;;;;;;;;;;11.60;99.90;;;;;;5075531;28;19935;-74
2022/11/15 01:29:44;;;;;;;;;;;11.60;99.90;;;;;;5075774;28;20042;-75
2022/11/15 01:32:10;;;;;;;;;;;11.60;99.90;;;;;;5075730;28;19912;-75
2022/11/15 01:34:35;;;;;;;;;;;11.60;99.90;;;;;;5075401;28;19908;-76
2022/11/15 01:37:01;;;;;;;;;;;11.60;99.90;;;;;;5057376;28;19954;-76
2022/11/15 01:39:27;;;;;;;;;;;11.60;99.90;;;;;;5074679;28;20345;-74
2022/11/15 01:41:53;;;;;;;;;;;11.60;99.90;;;;;;5075550;28;20370;-75
2022/11/15 01:44:30;;;;;;;;;;;11.70;99.90;;;;;;5075027;28;19908;-76
2022/11/15 01:46:56;;;;;;;;;;;11.70;99.90;;;;;;5075187;28;20015;-75
2022/11/15 01:49:22;;;;;;;;;;;11.70;99.90;;;;;;5075597;28;19955;-74
2022/11/15 01:51:48;;;;;;;;;;;11.70;99.90;;;;;;5075144;28;19920;-75
2022/11/15 01:54:15;;;;;;;;;;;11.70;99.90;;;;;;5057061;28;19915;-75
2022/11/15 01:56:44;;;;;;;;;;;11.80;99.90;;;;;;5075249;28;19908;-75
2022/11/15 01:59:10;;;;;;;;;;;11.80;99.90;;;;;;5074822;28;19959;-75
2022/11/15 02:01:36;;;;;;;;;;;11.80;99.90;;;;;;5075132;28;19944;-76
2022/11/15 02:04:06;;;;;;;;;;;11.80;99.90;;;;;;5074760;28;19909;-74
2022/11/15 02:06:32;;;;;;;;;;;11.80;99.90;;;;;;5075277;28;19979;-75
2022/11/15 02:08:58;;;;;;;;;;;11.90;99.90;;;;;;5074674;28;20003;-75
2022/11/15 02:11:24;;;;;;;;;;;11.80;99.90;;;;;;5074640;28;19909;-76
2022/11/15 02:13:50;;;;;;;;;;;11.90;99.90;;;;;;5074616;28;19919;-75
2022/11/15 02:16:21;;;;;;;;;;;11.90;99.90;;;;;;5075112;28;19909;-75
2022/11/15 02:19:07;;;;;;;;;;;11.90;99.90;;;;;;5074824;28;19909;-75
2022/11/15 02:22:00;;;;;;;;;;;11.90;99.90;;;;;;5033486;28;20363;-76
2022/11/15 02:24:25;;;;;;;;;;;12.00;99.90;;;;;;5074629;28;20313;-74
2022/11/15 02:26:51;;;;;;;;;;;12.00;99.90;;;;;;5074379;28;19916;-75
2022/11/15 02:29:35;;;;;;;;;;;12.00;99.90;;;;;;5074886;28;20347;-76
2022/11/15 02:32:07;;;;;;;;;;;12.00;99.90;;;;;;5074246;28;19908;-76
2022/11/15 02:34:42;;;;;;;;;;;12.00;99.90;;;;;;5074228;28;19909;-74
2022/11/15 02:37:08;;;;;;;;;;;12.00;99.90;;;;;;5074480;28;19913;-75
2022/11/15 02:39:51;;;;;;;;;;;12.00;99.90;;;;;;5074132;28;19908;-75
2022/11/15 02:45:09;;;;;;;;;;;12.00;99.90;;;;;;5074025;28;20009;-75
2022/11/15 02:47:41;;;;;;;;;;;12.00;99.90;;;;;;5074004;28;20318;-75
2022/11/15 02:50:07;;;;;;;;;;;12.00;99.90;;;;;;5074582;28;20278;-74
2022/11/15 02:52:33;;;;;;;;;;;12.00;99.90;;;;;;5073551;28;19928;-75
2022/11/15 02:55:00;;;;;;;;;;;12.00;99.90;;;;;;5073919;28;19909;-75
2022/11/15 02:57:35;;;;;;;;;;;12.00;99.90;;;;;;5055934;28;19912;-75
2022/11/15 03:00:08;;;;;;;;;;;12.00;99.90;;;;;;5074160;28;20351;-75
2022/11/15 03:02:34;;;;;;;;;;;12.00;99.90;;;;;;5073832;28;19916;-75
2022/11/15 03:05:06;;;;;;;;;;;12.00;99.90;;;;;;5073683;28;19916;-75
2022/11/15 03:07:44;;;;;;;;;;;12.00;99.90;;;;;;5073691;28;19909;-75
2022/11/15 03:10:18;;;;;;;;;;;12.00;99.90;;;;;;5073442;28;19916;-74
2022/11/15 03:12:57;;;;;;;;;;;12.00;99.90;;;;;;5074006;28;19908;-75
2022/11/15 03:15:31;;;;;;;;;;;12.00;99.90;;;;;;5073941;28;19916;-74
2022/11/15 03:18:35;;;;;;;;;;;12.00;99.90;;;;;;5055579;28;19909;-75
2022/11/15 03:21:02;;;;;;;;;;;12.00;99.90;;;;;;4992221;28;20261;-74
2022/11/15 03:23:29;;;;;;;;;;;11.90;99.90;;;;;;4992303;28;20362;-75
2022/11/15 03:25:56;;;;;;;;;;;11.90;99.90;;;;;;5031323;28;19912;-75
2022/11/15 03:28:32;;;;;;;;;;;11.90;99.90;;;;;;5073523;28;19913;-75
2022/11/15 03:30:58;;;;;;;;;;;11.90;99.90;;;;;;5073845;28;19915;-75
2022/11/15 03:33:24;;;;;;;;;;;11.90;99.90;;;;;;5074076;28;19912;-74
2022/11/15 03:35:52;;;;;;;;;;;11.90;99.90;;;;;;5073469;28;19962;-75
2022/11/15 03:38:25;;;;;;;;;;;11.90;99.90;;;;;;5055472;28;19915;-74
2022/11/15 03:41:01;;;;;;;;;;;11.90;99.90;;;;;;5073975;28;20301;-75
2022/11/15 03:43:45;;;;;;;;;;;11.90;99.90;;;;;;5073317;28;19912;-74
2022/11/15 03:46:13;;;;;;;;;;;11.90;99.90;;;;;;5073524;28;19918;-74
2022/11/15 03:48:43;;;;;;;;;;;11.90;99.90;;;;;;5073837;28;19909;-75
2022/11/15 03:51:09;;;;;;;;;;;11.90;99.90;;;;;;5073111;28;19926;-74
2022/11/15 03:53:34;;;;;;;;;;;11.90;99.90;;;;;;5073276;28;19947;-74
2022/11/15 03:56:00;;;;;;;;;;;11.90;99.90;;;;;;5073219;28;19908;-74
2022/11/15 03:58:25;;;;;;;;;;;12.00;99.90;;;;;;5073803;28;19952;-75
2022/11/15 04:00:51;;;;;;;;;;;12.00;99.90;;;;;;5073610;28;19908;-75
2022/11/15 04:03:16;;;;;;;;;;;12.00;99.90;;;;;;5077156;28;19908;-74
2022/11/15 04:05:42;;;;;;;;;;;12.00;99.90;;;;;;5077300;28;19919;-76
2022/11/15 04:08:07;;;;;;;;;;;12.00;99.90;;;;;;5077020;28;19913;-75
2022/11/15 04:10:33;;;;;;;;;;;12.00;99.90;;;;;;5076972;28;20393;-75
2022/11/15 04:12:58;;;;;;;;;;;12.00;99.90;;;;;;5077267;28;19908;-74
2022/11/15 04:15:24;;;;;;;;;;;12.10;99.90;;;;;;5058949;28;20378;-75
2022/11/15 04:17:51;;;;;;;;;;;12.00;99.90;;;;;;5077101;28;19983;-75
2022/11/15 04:25:50;;;;;;;;;;;12.10;99.90;;;;;;5076529;28;20392;-75
2022/11/15 04:28:16;;;;;;;;;;;12.10;99.90;;;;;;5077215;28;19909;-74
2022/11/15 04:30:42;;;;;;;;;;;12.10;99.90;;;;;;5058468;28;19908;-75
2022/11/15 04:33:07;;;;;;;;;;;12.10;99.90;;;;;;5076596;28;19962;-75
2022/11/15 04:35:33;;;;;;;;;;;12.10;99.90;;;;;;5076566;28;20341;-75
2022/11/15 04:37:59;;;;;;;;;;;12.10;99.90;;;;;;5076542;28;20003;-75
2022/11/15 04:40:24;;;;;;;;;;;12.10;99.90;;;;;;5076446;28;19908;-76
2022/11/15 04:42:50;;;;;;;;;;;12.10;99.90;;;;;;5076371;28;19915;-76
2022/11/15 04:45:15;;;;;;;;;;;12.10;99.90;;;;;;5076275;28;19920;-75
2022/11/15 04:47:43;;;;;;;;;;;12.10;99.90;;;;;;5076590;28;19908;-75
2022/11/15 04:50:08;;;;;;;;;;;12.10;99.90;;;;;;5058803;28;19912;-74
2022/11/15 04:52:34;;;;;;;;;;;12.10;99.90;;;;;;5076047;28;19927;-75
2022/11/15 04:54:59;;;;;;;;;;;12.10;99.90;;;;;;5076748;28;20475;-74
2022/11/15 04:57:25;;;;;;;;;;;12.10;99.90;;;;;;5058210;28;19995;-74
2022/11/15 04:59:50;;;;;;;;;;;12.10;99.90;;;;;;5076709;28;19915;-75
2022/11/15 05:02:16;;;;;;;;;;;12.10;99.90;;;;;;5076101;28;19909;-74
2022/11/15 05:04:41;;;;;;;;;;;12.10;99.90;;;;;;5075986;28;19948;-75
2022/11/15 05:07:07;;;;;;;;;;;12.00;99.90;;;;;;5075988;28;19909;-74
2022/11/15 05:09:32;;;;;;;;;;;12.00;99.90;;;;;;5075914;28;19934;-74
2022/11/15 05:11:58;;;;;;;;;;;12.00;99.90;;;;;;5076083;28;19966;-75
2022/11/15 05:14:23;;;;;;;;;;;12.00;99.90;;;;;;5075800;28;19909;-75
2022/11/15 05:16:48;;;;;;;;;;;12.00;99.90;;;;;;5075796;28;20401;-74
2022/11/15 05:19:14;;;;;;;;;;;12.00;99.90;;;;;;5075747;28;19909;-74
2022/11/15 05:21:40;;;;;;;;;;;12.10;99.90;;;;;;5075945;28;19920;-74
2022/11/15 05:24:06;;;;;;;;;;;12.10;99.90;;;;;;5075897;28;19934;-75
2022/11/15 05:26:31;;;;;;;;;;;12.10;99.90;;;;;;5057577;28;19917;-75
2022/11/15 05:28:58;;;;;;;;;;;12.10;99.90;;;;;;5075865;28;19909;-74
2022/11/15 05:31:24;;;;;;;;;;;12.10;99.90;;;;;;5075493;28;19917;-74
2022/11/15 05:33:51;;;;;;;;;;;12.10;99.90;;;;;;5075483;28;20003;-75
2022/11/15 05:36:35;;;;;;;;;;;12.10;99.90;;;;;;5075420;28;20363;-75
2022/11/15 05:39:01;;;;;;;;;;;12.10;99.90;;;;;;5075348;28;19912;-74
2022/11/15 05:41:30;;;;;;;;;;;12.10;99.90;;;;;;5075645;28;19932;-74
2022/11/15 05:43:56;;;;;;;;;;;12.10;99.90;;;;;;5075478;28;19952;-74
2022/11/15 05:46:21;;;;;;;;;;;12.10;99.90;;;;;;5075133;28;19963;-75
2022/11/15 05:48:49;;;;;;;;;;;12.10;99.90;;;;;;5075665;28;19999;-74
2022/11/15 05:51:16;;;;;;;;;;;12.10;99.90;;;;;;5075136;28;19917;-74
2022/11/15 05:53:41;;;;;;;;;;;12.10;99.90;;;;;;5057080;28;20281;-75
2022/11/15 05:56:08;;;;;;;;;;;12.10;99.90;;;;;;5075021;28;19908;-75
2022/11/15 05:58:34;;;;;;;;;;;12.10;99.90;;;;;;5075236;28;19908;-73
2022/11/15 06:01:00;;;;;;;;;;;12.10;99.90;;;;;;5075198;28;20423;-74
2022/11/15 06:03:25;;;;;;;;;;;12.10;99.90;;;;;;5074874;28;19908;-74
2022/11/15 06:05:51;;;;;;;;;;;12.10;99.90;;;;;;5074498;28;19935;-74
2022/11/15 06:08:16;;;;;;;;;;;12.00;99.90;;;;;;5075085;28;20259;-74
2022/11/15 06:10:42;;;;;;;;;;;12.00;99.90;;;;;;5074740;28;20400;-74
2022/11/15 06:13:07;;;;;;;;;;;12.00;99.90;;;;;;5074918;28;19909;-74
2022/11/15 06:15:36;;;;;;;;;;;12.00;99.90;;;;;;5074608;28;19915;-74
2022/11/15 06:18:02;;;;;;;;;;;12.00;99.90;;;;;;5074629;28;19957;-74
2022/11/15 06:20:28;;;;;;;;;;;12.00;99.90;;;;;;5074810;28;20351;-73
2022/11/15 06:23:00;;;;;;;;;;;12.00;99.90;;;;;;5074518;28;20374;-73
2022/11/15 06:25:26;;;;;;;;;;;12.00;99.90;;;;;;5074476;28;19912;-75
2022/11/15 06:27:52;;;;;;;;;;;12.00;99.90;;;;;;5074370;28;19992;-75
2022/11/15 06:30:18;;;;;;;;;;;12.00;99.90;;;;;;5074328;28;19908;-74
2022/11/15 06:32:44;;;;;;;;;;;12.00;99.90;;;;;;5074341;28;20366;-74
2022/11/15 06:35:09;;;;;;;;;;;12.00;99.90;;;;;;5074826;28;19913;-74
2022/11/15 06:37:35;;;;;;;;;;;12.00;99.90;;;;;;5074199;28;19969;-73
2022/11/15 06:40:00;;;;;;;;;;;12.00;99.90;;;;;;5074127;28;19909;-75
2022/11/15 06:42:26;;;;;;;;;;;12.00;99.90;;;;;;5056113;28;19955;-74
2022/11/15 06:44:51;;;;;;;;;;;12.00;99.90;;;;;;5074024;28;20319;-74
2022/11/15 06:47:17;;;;;;;;;;;12.10;99.90;;;;;;5074612;28;19908;-74
2022/11/15 06:49:42;;;;;;;;;;;12.00;99.90;;;;;;5074530;28;19909;-73
2022/11/15 06:52:08;;;;;;;;;;;12.10;99.90;;;;;;5073978;28;20035;-74
2022/11/15 06:54:33;;;;;;;;;;;12.10;99.90;;;;;;5073904;28;19908;-72
2022/11/15 06:56:59;;;;;;;;;;;12.10;99.90;;;;;;5074145;28;19913;-73
2022/11/15 06:59:24;;;;;;;;;;;12.10;99.90;;;;;;5073850;28;19908;-74
2022/11/15 07:01:50;;;;;;;;;;;12.10;99.90;;;;;;5074147;28;19982;-74
2022/11/15 07:04:15;;;;;;;;;;;12.20;99.90;;;;;;5055837;28;20003;-74
2022/11/15 07:06:40;;;;;;;;;;;12.10;99.90;;;;;;5074025;28;19912;-74
2022/11/15 07:09:06;;;;;;;;;;;12.20;99.90;;;;;;5073760;28;20290;-74
2022/11/15 07:11:32;;;;;;;;;;;12.20;99.90;;;;;;5074291;28;19913;-73
2022/11/15 07:13:59;;;;;;;;;;;12.20;99.90;;;;;;5073692;28;19908;-73
2022/11/15 07:16:25;;;;;;;;;;;12.20;99.90;;;;;;5073675;28;20328;-74
2022/11/15 07:18:50;;;;;;;;;;;12.20;99.90;;;;;;5073636;28;19908;-74
2022/11/15 07:21:16;;;;;;;;;;;12.20;99.90;;;;;;5073875;28;19986;-74
2022/11/15 07:23:41;;;;;;;;;;;12.30;99.90;;;;;;5073632;28;20366;-74
2022/11/15 07:26:07;;;;;;;;;;;12.30;99.90;;;;;;5074066;28;20358;-73
2022/11/15 07:28:33;;;;;;;;;;;12.30;99.90;;;;;;5073566;28;20293;-74
2022/11/15 07:31:01;;;;;;;;;;;12.30;99.90;;;;;;5073828;28;19909;-74
2022/11/15 07:33:27;;;;;;;;;;;12.30;99.90;;;;;;5073468;28;20003;-76
2022/11/15 07:35:52;;;;;;;;;;;12.40;99.90;;;;;;5073578;28;19947;-74
2022/11/15 07:38:19;;;;;;;;;;;12.40;99.90;;;;;;5078229;28;20358;-74
2022/11/15 07:40:44;;;;;;;;;;;12.40;99.90;;;;;;5077582;28;19908;-75
2022/11/15 07:43:10;;;;;;;;;;;12.40;99.90;;;;;;5077810;28;19915;-73
2022/11/15 07:45:40;;;;;;;;;;;12.40;99.90;;;;;;5077506;28;20004;-74
2022/11/15 07:48:05;;;;;;;;;;;12.50;99.90;;;;;;5077468;28;19947;-75
2022/11/15 07:50:31;;;;;;;;;;;12.50;99.90;;;;;;5077942;28;19978;-75
2022/11/15 07:52:57;;;;;;;;;;;12.50;99.90;;;;;;5076979;28;19920;-73
2022/11/15 07:55:23;;;;;;;;;;;12.50;99.90;;;;;;5059318;28;19908;-74
2022/11/15 07:57:49;;;;;;;;;;;12.50;99.90;;;;;;5077931;28;19913;-81
2022/11/15 08:00:15;;;;;;;;;;;12.60;99.90;;;;;;5058984;28;19912;-83
2022/11/15 08:02:41;;;;;;;;;;;12.60;99.90;;;;;;5077125;28;20007;-73
2022/11/15 08:05:08;;;;;;;;;;;12.60;99.90;;;;;;5077052;28;19913;-85
2022/11/15 08:07:33;;;;;;;;;;;12.60;99.90;;;;;;5076663;28;19912;-82
2022/11/15 08:10:00;;;;;;;;;;;12.60;99.90;;;;;;5077336;28;19909;-81
2022/11/15 08:12:28;;;;;;;;;;;12.60;99.90;;;;;;5059180;28;20400;-80
2022/11/15 08:14:54;;;;;;;;;;;12.60;99.90;;;;;;5077038;28;19916;-80
2022/11/15 08:17:20;;;;;;;;;;;12.70;99.90;;;;;;5077203;28;19975;-81
2022/11/15 08:19:45;;;;;;;;;;;12.70;99.90;;;;;;5075998;28;19912;-80
2022/11/15 08:22:11;;;;;;;;;;;12.70;99.90;;;;;;5058994;28;20023;-82
2022/11/15 08:24:36;;;;;;;;;;;12.70;99.90;;;;;;5058562;28;19913;-84
2022/11/15 08:27:02;;;;;;;;;;;12.70;99.90;;;;;;5076690;28;19915;-81
2022/11/15 08:29:27;;;;;;;;;;;12.70;99.90;;;;;;5076673;28;19908;-79
2022/11/15 08:31:54;;;;;;;;;;;12.80;99.90;;;;;;5076829;28;20010;-77
2022/11/15 08:34:20;;;;;;;;;;;12.80;99.90;;;;;;5076554;28;19913;-81
2022/11/15 08:36:45;;;;;;;;;;;12.80;99.90;;;;;;5076515;28;19915;-81
2022/11/15 08:39:12;;;;;;;;;;;12.80;99.90;;;;;;5058592;28;20007;-81
2022/11/15 08:41:37;;;;;;;;;;;12.80;99.90;;;;;;5076939;28;20377;-80
2022/11/15 08:44:03;;;;;;;;;;;12.80;99.90;;;;;;5076939;28;19909;-79
2022/11/15 08:46:28;;;;;;;;;;;12.80;99.90;;;;;;5076296;28;19920;-79
2022/11/15 08:48:54;;;;;;;;;;;12.90;99.90;;;;;;5058505;28;19958;-79
2022/11/15 08:51:19;;;;;;;;;;;12.80;99.90;;;;;;5077001;28;19931;-79
2022/11/15 08:53:45;;;;;;;;;;;12.90;99.90;;;;;;5076398;28;19946;-82
2022/11/15 08:56:12;;;;;;;;;;;12.90;99.90;;;;;;5076461;28;19908;-82
2022/11/15 08:58:37;;;;;;;;;;;12.90;99.90;;;;;;5076179;28;20378;-77
2022/11/15 09:01:03;;;;;;;;;;;12.90;99.90;;;;;;5076434;28;19908;-79
2022/11/15 09:03:29;;;;;;;;;;;12.90;99.90;;;;;;5076112;28;19998;-71
2022/11/15 09:05:58;;;;;;;;;;;12.90;99.90;;;;;;5076006;28;19982;-81
2022/11/15 09:08:25;;;;;;;;;;;13.00;99.90;;;;;;5076329;28;19909;-79
2022/11/15 09:10:51;;;;;;;;;;;13.00;99.90;;;;;;5058055;28;20365;-79
2022/11/15 09:13:16;;;;;;;;;;;13.00;99.90;;;;;;5075919;28;19915;-81
2022/11/15 09:15:42;;;;;;;;;;;13.00;99.90;;;;;;5076129;28;20355;-83
2022/11/15 09:18:08;;;;;;;;;;;13.00;99.90;;;;;;5076538;28;19920;-80
2022/11/15 09:20:33;;;;;;;;;;;13.00;99.90;;;;;;5076371;28;20358;-81
2022/11/15 09:23:02;;;;;;;;;;;13.10;99.90;;;;;;5075718;28;20292;-76
2022/11/15 09:25:28;;;;;;;;;;;13.10;99.90;;;;;;5075499;28;19982;-73
2022/11/15 09:27:53;;;;;;;;;;;13.10;99.90;;;;;;5086964;28;21664;-76
2022/11/15 09:30:19;;;;;;;;;;;13.10;99.90;;;;;;5074197;28;19908;-75
2022/11/15 09:32:44;;;;;;;;;;;13.10;99.90;;;;;;5093804;28;20318;-75
2022/11/15 09:35:10;;;;;;;;;;;13.10;99.90;;;;;;5094262;28;20277;-74
2022/11/15 09:37:35;;;;;;;;;;;13.10;99.90;;;;;;5094569;28;20011;-76
2022/11/15 09:40:01;;;;;;;;;;;13.10;99.90;;;;;;5087239;28;19916;-79
2022/11/15 09:42:34;;;;;;;;;;;13.10;99.90;;;;;;5075293;28;19912;-83
2022/11/15 09:45:12;;;;;;;;;;;13.20;99.90;;;;;;5078829;28;19974;-86
2022/11/15 09:47:46;;;;;;;;;;;13.20;99.90;;;;;;5080611;28;20420;-80
2022/11/15 09:50:13;;;;;;;;;;;13.30;99.90;;;;;;5073160;28;19909;-75
2022/11/15 09:52:41;;;;;;;;;;;13.30;99.90;;;;;;5080367;28;20006;-77
2022/11/15 09:55:09;;;;;;;;;;;13.30;99.90;;;;;;5095340;28;20366;-82
2022/11/15 09:57:39;;;;;;;;;;;13.40;99.90;;;;;;5095253;28;20353;-79
2022/11/15 10:00:11;;;;;;;;;;;13.40;99.90;;;;;;5094399;28;19977;-76
2022/11/15 10:02:39;;;;;;;;;;;13.40;99.90;;;;;;5095216;28;20289;-80
2022/11/15 10:05:08;;;;;;;;;;;13.40;99.90;;;;;;5094970;28;19912;-83
2022/11/15 10:07:52;;;;;;;;;;;13.50;99.90;;;;;;5062319;28;20458;-79
2022/11/15 10:10:24;;;;;;;;;;;13.60;99.90;;;;;;5074771;28;20030;-79
2022/11/15 10:12:51;;;;;;;;;;;14.00;99.90;;;;;;5074683;28;19912;-80
2022/11/15 10:15:22;;;;;;;;;;;14.20;99.90;;;;;;5074672;28;19958;-81
2022/11/15 10:18:06;;;;;;;;;;;14.40;99.90;;;;;;5082432;28;19908;-85
2022/11/15 10:20:38;;;;;;;;;;;14.50;99.90;;;;;;5094951;28;19912;-84
2022/11/15 10:23:11;;;;;;;;;;;14.60;99.90;;;;;;5095219;28;19908;-84
2022/11/15 10:25:38;;;;;;;;;;;14.70;99.90;;;;;;5093263;28;19916;-83
2022/11/15 10:28:03;;;;;;;;;;;14.60;99.90;;;;;;5094860;28;19915;-85
2022/11/15 10:30:31;;;;;;;;;;;14.60;99.90;;;;;;5076885;28;19908;-86
2022/11/15 10:33:12;;;;;;;;;;;14.40;99.90;;;;;;5076772;28;19961;-89
2022/11/15 10:35:38;;;;;;;;;;;14.40;99.90;;;;;;5095194;28;19908;-85
2022/11/15 10:38:08;;;;;;;;;;;14.40;99.90;;;;;;5075397;28;19912;-83
2022/11/15 10:40:34;;;;;;;;;;;14.40;99.90;;;;;;5077335;28;19908;-87
2022/11/15 10:43:18;;;;;;;;;;;14.40;99.90;;;;;;5094634;28;20384;-83
2022/11/15 10:45:45;;;;;;;;;;;14.40;99.90;;;;;;5076185;28;19920;-82
2022/11/15 10:48:13;;;;;;;;;;;14.40;99.90;;;;;;5076167;28;20446;-83
2022/11/15 10:50:40;;;;;;;;;;;14.60;99.90;;;;;;5077170;28;20006;-84
2022/11/15 10:53:15;;;;;;;;;;;14.70;99.90;;;;;;5076334;28;19924;-81
2022/11/15 10:55:42;;;;;;;;;;;14.80;99.90;;;;;;5076675;28;20006;-76
2022/11/15 10:58:20;;;;;;;;;;;14.70;99.90;;;;;;5093418;28;21346;-79
2022/11/15 11:00:46;;;;;;;;;;;14.80;99.90;;;;;;5094581;28;19912;-80
2022/11/15 11:03:34;;;;;;;;;;;14.70;99.90;;;;;;5089753;28;20352;-80
2022/11/15 11:06:13;;;;;;;;;;;14.80;99.90;;;;;;5074374;28;19962;-76
2022/11/15 11:08:39;;;;;;;;;;;15.10;99.90;;;;;;5073873;28;19908;-81
2022/11/15 11:11:05;;;;;;;;;;;15.30;99.90;;;;;;5073206;28;19919;-74
2022/11/15 11:13:31;;;;;;;;;;;15.30;99.90;;;;;;5076834;28;19919;-75
2022/11/15 11:16:17;;;;;;;;;;;15.30;99.90;;;;;;5094504;28;19909;-83
2022/11/15 11:18:49;;;;;;;;;;;15.10;99.90;;;;;;5071560;28;19979;-83
2022/11/15 11:21:18;;;;;;;;;;;15.00;99.90;;;;;;5073405;28;19948;-81
2022/11/15 11:23:44;;;;;;;;;;;15.00;99.90;;;;;;5074214;28;19974;-83
2022/11/15 11:26:09;;;;;;;;;;;15.00;99.90;;;;;;5083200;28;20386;-84
2022/11/15 11:28:38;;;;;;;;;;;14.80;99.90;;;;;;5092025;28;19912;-83
2022/11/15 11:31:16;;;;;;;;;;;14.70;99.90;;;;;;5092811;28;19908;-75
2022/11/15 11:33:54;;;;;;;;;;;14.60;99.90;;;;;;5073775;28;20382;-77
2022/11/15 11:36:24;;;;;;;;;;;14.40;99.90;;;;;;5073852;28;19917;-77
2022/11/15 11:38:55;;;;;;;;;;;14.30;99.90;;;;;;5073432;28;20007;-75
2022/11/15 11:41:20;;;;;;;;;;;14.30;99.90;;;;;;5073429;28;19999;-75
2022/11/15 11:43:52;;;;;;;;;;;14.20;99.90;;;;;;5073910;28;19952;-74
2022/11/15 11:46:35;;;;;;;;;;;14.10;99.90;;;;;;5073352;28;20362;-76
2022/11/15 11:49:04;;;;;;;;;;;14.10;99.90;;;;;;5073344;28;20429;-77
2022/11/15 11:51:39;;;;;;;;;;;14.20;99.90;;;;;;5066844;28;19925;-74
2022/11/15 11:54:11;;;;;;;;;;;14.30;99.90;;;;;;5035146;28;20003;-75
2022/11/15 11:56:39;;;;;;;;;;;14.30;99.90;;;;;;5053591;28;19912;-76
2022/11/15 11:59:15;;;;;;;;;;;14.40;99.90;;;;;;5053253;28;20012;-75
2022/11/15 12:01:42;;;;;;;;;;;14.40;99.90;;;;;;5035141;28;19913;-75
2022/11/15 12:04:13;;;;;;;;;;;14.50;99.90;;;;;;5053217;28;19999;-77
2022/11/15 12:06:40;;;;;;;;;;;14.50;99.90;;;;;;5053137;28;19913;-76
2022/11/15 12:09:11;;;;;;;;;;;14.60;99.90;;;;;;5035257;28;20278;-75
2022/11/15 12:11:58;;;;;;;;;;;14.60;99.90;;;;;;5053406;28;19959;-75
2022/11/15 12:14:30;;;;;;;;;;;14.60;99.90;;;;;;5053105;28;20446;-75
2022/11/15 12:16:56;;;;;;;;;;;14.70;99.90;;;;;;5053338;28;19940;-76
2022/11/15 12:19:22;;;;;;;;;;;14.80;99.90;;;;;;5053046;28;19909;-76
2022/11/15 12:22:14;;;;;;;;;;;14.80;99.90;;;;;;5053039;28;19908;-76
2022/11/15 12:24:51;;;;;;;;;;;14.90;99.90;;;;;;5016413;28;19916;-75
2022/11/15 12:27:24;;;;;;;;;;;15.00;99.90;;;;;;5057090;28;19913;-77
2022/11/15 12:29:53;;;;;;;;;;;15.10;99.90;;;;;;5056776;28;20403;-76
2022/11/15 12:32:25;;;;;;;;;;;15.10;99.90;;;;;;5056684;28;19913;-76
2022/11/15 12:34:51;;;;;;;;;;;15.30;99.90;;;;;;5056613;28;19913;-75
2022/11/15 12:37:35;;;;;;;;;;;15.30;99.90;;;;;;5056603;28;20396;-77
2022/11/15 12:40:18;;;;;;;;;;;15.40;99.90;;;;;;5056523;28;19909;-75
2022/11/15 12:43:02;;;;;;;;;;;15.50;99.90;;;;;;5056971;28;19909;-75
2022/11/15 12:45:27;;;;;;;;;;;15.50;99.90;;;;;;5056616;28;19913;-76
2022/11/15 12:47:53;;;;;;;;;;;15.60;99.90;;;;;;5056376;28;20046;-75
2022/11/15 12:50:38;;;;;;;;;;;15.60;99.90;;;;;;5056858;28;19958;-76
2022/11/15 12:53:22;;;;;;;;;;;15.50;99.90;;;;;;5055976;28;19921;-77
2022/11/15 12:56:07;;;;;;;;;;;15.60;99.90;;;;;;5056227;28;19909;-75
2022/11/15 12:58:42;;;;;;;;;;;15.80;99.90;;;;;;5038173;28;20385;-76
2022/11/15 13:01:09;;;;;;;;;;;15.80;99.90;;;;;;5056148;28;19916;-76
2022/11/15 13:03:34;;;;;;;;;;;15.80;99.90;;;;;;5056129;28;19909;-76
2022/11/15 13:06:01;;;;;;;;;;;15.70;99.90;;;;;;5056000;28;19939;-74
2022/11/15 13:08:46;;;;;;;;;;;15.50;99.90;;;;;;5056301;28;19916;-76
2022/11/15 13:11:31;;;;;;;;;;;15.40;99.90;;;;;;5037883;28;20015;-76
2022/11/15 13:13:56;;;;;;;;;;;15.30;99.90;;;;;;5056049;28;20294;-77
2022/11/15 13:16:22;;;;;;;;;;;15.10;99.90;;;;;;5055906;28;19958;-78
2022/11/15 13:18:57;;;;;;;;;;;15.10;99.90;;;;;;5055835;28;19909;-75
2022/11/15 13:24:13;;;;;;;;;;;15.00;99.90;;;;;;5056053;28;20385;-76
2022/11/15 13:26:39;;;;;;;;;;;15.10;99.90;;;;;;5055562;28;19920;-75
2022/11/15 13:29:13;;;;;;;;;;;15.30;99.90;;;;;;5037677;28;19909;-74
2022/11/15 13:31:43;;;;;;;;;;;15.40;99.90;;;;;;5055881;28;19916;-75
2022/11/15 13:34:17;;;;;;;;;;;15.30;99.90;;;;;;5054560;28;20358;-76
2022/11/15 13:36:43;;;;;;;;;;;15.30;99.90;;;;;;5055484;28;19916;-76
2022/11/15 13:39:25;;;;;;;;;;;15.20;99.90;;;;;;5055392;28;19913;-76
2022/11/15 13:41:51;;;;;;;;;;;15.20;99.90;;;;;;5055674;28;20007;-76
2022/11/15 13:44:27;;;;;;;;;;;15.10;99.90;;;;;;5055260;28;19909;-76
2022/11/15 13:47:02;;;;;;;;;;;15.10;99.90;;;;;;5055511;28;19913;-76
2022/11/15 13:49:28;;;;;;;;;;;15.20;99.90;;;;;;5055276;28;19913;-76
2022/11/15 13:51:54;;;;;;;;;;;15.10;99.90;;;;;;5055975;28;19986;-77
2022/11/15 13:54:26;;;;;;;;;;;15.10;99.90;;;;;;5055001;28;20366;-77
2022/11/15 13:56:57;;;;;;;;;;;15.10;99.90;;;;;;5055100;28;19909;-75
2022/11/15 13:59:23;;;;;;;;;;;15.10;99.90;;;;;;5055087;28;20278;-75
2022/11/15 14:01:49;;;;;;;;;;;15.10;99.90;;;;;;5055255;28;19958;-76
2022/11/15 14:04:18;;;;;;;;;;;15.10;99.90;;;;;;5037045;28;19909;-78
2022/11/15 14:06:45;;;;;;;;;;;15.10;99.90;;;;;;5054855;28;19944;-77
2022/11/15 14:09:11;;;;;;;;;;;15.10;99.90;;;;;;5055154;28;20366;-76
2022/11/15 14:11:36;;;;;;;;;;;15.00;99.90;;;;;;5054837;28;19909;-76
2022/11/15 14:14:12;;;;;;;;;;;15.10;99.90;;;;;;5054802;28;19909;-75
2022/11/15 14:16:39;;;;;;;;;;;15.00;99.90;;;;;;5054687;28;19916;-76
2022/11/15 14:19:05;;;;;;;;;;;15.00;99.90;;;;;;5055233;28;19908;-76
2022/11/15 14:21:31;;;;;;;;;;;14.80;99.90;;;;;;5054611;28;19913;-75
2022/11/15 14:24:15;;;;;;;;;;;14.60;99.90;;;;;;5054547;28;19916;-75
2022/11/15 14:26:41;;;;;;;;;;;14.40;99.90;;;;;;5054456;28;19917;-77
2022/11/15 14:29:26;;;;;;;;;;;14.30;99.90;;;;;;5054463;28;19909;-75
2022/11/15 14:31:52;;;;;;;;;;;14.30;99.90;;;;;;5054445;28;19909;-74
2022/11/15 14:34:18;;;;;;;;;;;14.40;99.90;;;;;;5054381;28;20387;-75
2022/11/15 14:36:43;;;;;;;;;;;14.50;99.90;;;;;;5054324;28;19952;-77